Time;durP1;ratioP1;P1;durP2;ratioP2;P2;SDS_P1;SDS_P2;PMS_P1;PMS_P2;Temp;Humidity;BMP_temperature;BMP_pressure;BME280_temperature;BME280_humidity;BME280_pressure;Samples;Min_cycle;Max_cycle;Signal;HPM_P1;HPM_P2
2021/12/08 00:14:32;;;;;;;17.93;9.53;;;;;;;5.41;100.00;99555.59;31316858;28;20061;-77
2021/12/08 00:29:34;;;;;;;12.43;6.50;;;;;;;5.05;100.00;99566.56;31283022;28;20046;-78
2021/12/08 00:44:36;;;;;;;14.70;8.40;;;;;;;4.66;100.00;99568.72;31283826;28;20045;-77
2021/12/08 00:59:38;;;;;;;14.40;8.90;;;;;;;4.46;100.00;99549.59;31298552;28;20045;-77
2021/12/08 01:14:59;;;;;;;12.80;7.63;;;;;;;4.23;100.00;99558.13;31274937;28;20062;-77
2021/12/08 01:30:03;;;;;;;15.60;8.77;;;;;;;4.05;100.00;99546.63;31274324;28;20057;-78
2021/12/08 02:00:42;;;;;;;17.80;8.27;;;;;;;4.11;100.00;99500.19;31271849;28;20727;-78
2021/12/08 02:15:45;;;;;;;14.13;8.50;;;;;;;4.13;100.00;99491.75;31301103;28;20060;-78
2021/12/08 02:30:56;;;;;;;15.97;7.83;;;;;;;4.20;100.00;99480.97;31309553;28;20144;-78
2021/12/08 03:01:19;;;;;;;17.37;8.63;;;;;;;4.34;100.00;99464.78;31280239;28;20060;-77
2021/12/08 03:16:21;;;;;;;14.93;7.60;;;;;;;4.35;100.00;99428.69;31293840;28;20140;-77
2021/12/08 03:31:30;;;;;;;22.23;9.07;;;;;;;4.35;100.00;99428.69;31298091;28;20099;-78
2021/12/08 03:46:38;;;;;;;26.93;11.53;;;;;;;4.44;100.00;99426.34;31292498;28;20140;-78
2021/12/08 04:01:40;;;;;;;22.43;10.07;;;;;;;4.52;100.00;99415.53;31287967;28;20041;-78
2021/12/08 04:16:54;;;;;;;23.70;11.70;;;;;;;4.61;100.00;99421.25;31308032;28;21716;-77
2021/12/08 04:31:58;;;;;;;27.43;12.53;;;;;;;4.72;100.00;99413.88;31304303;28;20049;-76
2021/12/08 05:17:19;;;;;;;28.40;14.10;;;;;;;4.98;100.00;99447.47;31302141;28;20147;-81
2021/12/08 05:32:21;;;;;;;31.50;15.43;;;;;;;4.99;100.00;99457.84;31281248;28;20053;-78
2021/12/08 05:47:27;;;;;;;33.70;15.53;;;;;;;5.13;100.00;99438.94;31302827;28;20515;-81
2021/12/08 06:02:34;;;;;;;27.23;14.47;;;;;;;5.29;100.00;99424.19;31351646;28;20123;-80
2021/12/08 06:17:37;;;;;;;31.90;15.40;;;;;;;5.50;100.00;99445.50;31364074;28;20050;-78
2021/12/08 06:32:39;;;;;;;26.87;14.13;;;;;;;5.67;100.00;99460.72;31418967;28;20054;-78
2021/12/08 06:47:42;;;;;;;24.13;13.63;;;;;;;6.03;100.00;99434.19;31344934;28;20049;-80
2021/12/08 07:17:54;;;;;;;29.97;14.23;;;;;;;7.18;98.13;99424.06;31311550;28;20057;-78
2021/12/08 07:32:56;;;;;;;27.33;12.90;;;;;;;7.17;99.43;99432.56;31357687;28;20056;-78
2021/12/08 07:48:00;;;;;;;24.33;12.37;;;;;;;6.82;100.00;99440.06;31344926;28;20053;-73
2021/12/08 08:03:04;;;;;;;26.87;14.03;;;;;;;7.14;99.59;99439.56;31346992;28;20057;-75
2021/12/08 08:18:10;;;;;;;21.50;12.40;;;;;;;7.36;97.61;99415.66;31353315;28;20063;-74
2021/12/08 08:33:14;;;;;;;25.53;11.97;;;;;;;7.31;100.00;99418.09;31310100;28;20087;-72
2021/12/08 08:48:23;;;;;;;20.93;10.67;;;;;;;7.41;100.00;99392.81;31337001;28;20052;-74
2021/12/08 09:03:28;;;;;;;22.93;11.50;;;;;;;7.43;99.04;99409.38;31283794;28;20072;-74
2021/12/08 09:18:40;;;;;;;21.33;11.63;;;;;;;7.62;97.31;99397.06;31324648;28;20116;-74
2021/12/08 09:34:09;;;;;;;23.47;11.33;;;;;;;7.60;98.84;99386.66;31397965;28;20214;-73
2021/12/08 09:49:13;;;;;;;22.27;10.47;;;;;;;8.29;100.00;99373.28;31329779;28;20517;-72
2021/12/08 10:04:18;;;;;;;25.63;10.53;;;;;;;8.45;98.48;99344.38;31345949;28;20137;-73
2021/12/08 10:19:22;;;;;;;22.33;8.80;;;;;;;8.35;97.50;99334.56;31364959;28;20053;-73
2021/12/08 10:34:34;;;;;;;25.53;10.37;;;;;;;8.34;95.80;99327.63;31395064;28;20045;-73
2021/12/08 11:04:50;;;;;;;32.10;12.17;;;;;;;8.71;98.96;99317.50;31350387;28;20067;-75
2021/12/08 11:20:19;;;;;;;20.07;10.43;;;;;;;8.78;95.42;99306.47;31312529;28;20047;-74
2021/12/08 11:35:22;;;;;;;17.57;8.40;;;;;;;8.92;96.51;99300.72;31309729;28;20064;-74
2021/12/08 11:50:25;;;;;;;13.60;7.37;;;;;;;9.11;93.33;99305.25;31347245;28;20406;-74
2021/12/08 12:05:33;;;;;;;15.50;7.30;;;;;;;10.33;92.61;99295.16;31329420;28;20045;-73
2021/12/08 12:21:00;;;;;;;20.87;7.87;;;;;;;9.73;92.85;99313.97;31308004;28;20072;-74
2021/12/08 12:36:01;;;;;;;;;;;;;;;9.34;93.90;99330.56;31316612;28;20486;-73
2021/12/08 12:51:07;;;;;;;23.67;9.40;;;;;;;9.10;98.44;99324.63;31334723;28;19943;-75
2021/12/08 13:06:47;;;;;;;19.37;7.90;;;;;;;8.94;98.13;99309.19;31320703;28;20060;-73
2021/12/08 13:21:52;;;;;;;25.30;9.90;;;;;;;8.89;100.00;99318.56;31299375;28;20506;-74
2021/12/08 13:37:13;;;;;;;25.77;9.83;;;;;;;8.67;98.72;99349.28;31335926;28;20061;-75
2021/12/08 13:52:19;;;;;;;25.23;10.53;;;;;;;8.47;100.00;99352.06;31318802;28;20049;-74
2021/12/08 14:07:21;;;;;;;33.53;13.97;;;;;;;8.24;100.00;99361.06;31364455;28;20059;-73
2021/12/08 14:22:36;;;;;;;35.43;13.53;;;;;;;8.15;100.00;99352.75;31359064;28;20399;-73
2021/12/08 14:37:39;;;;;;;18.00;9.33;;;;;;;8.07;100.00;99351.38;31318838;28;20099;-74
2021/12/08 14:52:44;;;;;;;16.20;8.13;;;;;;;7.92;100.00;99369.06;31337669;28;20052;-74
2021/12/08 15:07:46;;;;;;;16.00;7.60;;;;;;;7.69;100.00;99372.63;31342396;28;20053;-75
2021/12/08 15:22:57;;;;;;;22.57;8.83;;;;;;;7.54;100.00;99388.34;31334555;28;20076;-74
2021/12/08 15:38:00;;;;;;;20.47;9.33;;;;;;;7.39;100.00;99401.34;31319004;28;20052;-75
2021/12/08 15:53:03;;;;;;;31.30;12.47;;;;;;;7.20;100.00;99399.34;31318429;28;20415;-74
2021/12/08 16:08:06;;;;;;;34.90;13.13;;;;;;;7.17;100.00;99410.97;31324602;28;20478;-75
2021/12/08 16:23:08;;;;;;;28.97;10.97;;;;;;;7.16;100.00;99437.22;31307576;28;20095;-73
2021/12/08 16:38:12;;;;;;;29.27;11.93;;;;;;;6.99;100.00;99454.44;31385079;28;20056;-75
2021/12/08 16:53:16;;;;;;;25.40;11.97;;;;;;;6.75;100.00;99455.59;31313710;28;20045;-73
2021/12/08 17:08:20;;;;;;;24.80;10.87;;;;;;;6.56;100.00;99461.66;31303650;28;20142;-75
2021/12/08 17:23:22;;;;;;;23.13;11.67;;;;;;;6.47;100.00;99468.28;31314328;28;20049;-75
2021/12/08 17:38:24;;;;;;;24.13;11.83;;;;;;;6.44;100.00;99469.09;31337158;28;20064;-77
2021/12/08 17:53:26;;;;;;;34.00;14.47;;;;;;;6.46;100.00;99472.16;31332927;28;20052;-76
2021/12/08 18:08:32;;;;;;;26.97;12.50;;;;;;;6.53;100.00;99486.72;31343134;28;20049;-76
2021/12/08 18:23:40;;;;;;;21.60;10.83;;;;;;;6.55;100.00;99489.78;31325148;28;20080;-77
2021/12/08 18:38:44;;;;;;;25.10;11.73;;;;;;;6.58;100.00;99489.75;31315925;28;20066;-73
2021/12/08 18:53:48;;;;;;;19.40;10.00;;;;;;;6.66;100.00;99490.38;31336512;28;20045;-77
2021/12/08 19:08:52;;;;;;;22.10;11.30;;;;;;;6.79;100.00;99496.78;31353170;28;20067;-76
2021/12/08 19:23:55;;;;;;;22.17;12.17;;;;;;;6.83;100.00;99516.38;31297015;28;20055;-75
2021/12/08 19:38:57;;;;;;;21.93;11.97;;;;;;;6.86;100.00;99507.44;31324110;28;20056;-75
2021/12/08 19:53:59;;;;;;;26.07;12.73;;;;;;;6.90;100.00;99493.91;31312731;28;20068;-74
2021/12/08 20:09:03;;;;;;;22.37;12.30;;;;;;;6.95;100.00;99510.41;31303107;28;20045;-72
2021/12/08 20:24:05;;;;;;;21.27;10.77;;;;;;;7.02;100.00;99515.72;31315803;28;20052;-79
2021/12/08 20:39:07;;;;;;;24.13;11.13;;;;;;;6.99;100.00;99530.00;31295004;28;20110;-76
2021/12/08 20:54:10;;;;;;;27.07;12.00;;;;;;;6.93;100.00;99547.81;31314603;28;20045;-79
2021/12/08 21:09:16;;;;;;;21.70;10.57;;;;;;;6.85;100.00;99549.84;31302542;28;20049;-74
2021/12/08 21:24:19;;;;;;;29.07;12.70;;;;;;;6.84;100.00;99555.66;31319696;28;20068;-75
2021/12/08 21:39:22;;;;;;;26.90;12.33;;;;;;;6.82;100.00;99571.50;31293370;28;20061;-74
2021/12/08 21:54:25;;;;;;;27.70;12.07;;;;;;;6.85;100.00;99567.97;31312722;28;20076;-77
2021/12/08 22:09:28;;;;;;;23.37;11.37;;;;;;;6.93;100.00;99574.03;31313686;28;20520;-77
2021/12/08 22:24:30;;;;;;;31.13;12.47;;;;;;;6.94;100.00;99565.53;31297497;28;20414;-77
2021/12/08 22:39:34;;;;;;;28.27;12.33;;;;;;;6.93;100.00;99566.72;31313008;28;20065;-77
2021/12/08 22:54:35;;;;;;;26.90;12.03;;;;;;;6.96;100.00;99590.19;31307297;28;20046;-77
2021/12/08 23:09:38;;;;;;;26.30;12.00;;;;;;;6.98;100.00;99606.75;31306610;28;20061;-77
2021/12/08 23:24:39;;;;;;;26.00;10.63;;;;;;;7.00;100.00;99617.91;31307812;28;20056;-77
2021/12/08 23:39:41;;;;;;;34.83;10.53;;;;;;;7.08;100.00;99640.94;31302602;28;20053;-76
2021/12/08 23:54:43;;;;;;;47.17;11.60;;;;;;;7.10;100.00;99660.16;31322929;28;20474;-76
